Time;durP1;ratioP1;P1;durP2;ratioP2;P2;SDS_P1;SDS_P2;PMS_P1;PMS_P2;Temp;Humidity;BMP_temperature;BMP_pressure;BME280_temperature;BME280_humidity;BME280_pressure;Samples;Min_cycle;Max_cycle;Signal;HPM_P1;HPM_P2
2023/04/13 00:00:55;;;;;;;1999.90;999.90;;;8.20;99.90;;;;;;4999977;28;20421;-72
2023/04/13 00:03:21;;;;;;;1999.90;999.90;;;8.40;99.90;;;;;;4999470;28;20665;-73
2023/04/13 00:05:47;;;;;;;1999.90;999.90;;;8.20;99.90;;;;;;5000012;28;20177;-73
2023/04/13 00:08:13;;;;;;;1999.90;999.90;;;8.30;99.90;;;;;;5000327;28;20170;-73
2023/04/13 00:10:41;;;;;;;1999.90;999.90;;;8.30;99.90;;;;;;4999901;28;20442;-72
2023/04/13 00:13:09;;;;;;;1999.90;999.90;;;8.40;99.90;;;;;;4999699;28;20509;-72
2023/04/13 00:15:39;;;;;;;1999.90;999.90;;;8.30;99.90;;;;;;4999219;28;20452;-72
2023/04/13 00:18:05;;;;;;;1999.90;999.90;;;8.40;99.90;;;;;;4999222;28;20516;-73
2023/04/13 00:20:31;;;;;;;1999.90;999.90;;;8.30;99.90;;;;;;4998735;28;21144;-73
2023/04/13 00:22:57;;;;;;;1999.90;999.90;;;8.30;99.90;;;;;;4998986;28;20452;-73
2023/04/13 00:25:22;;;;;;;1999.90;999.90;;;8.30;99.90;;;;;;4997979;28;20442;-73
2023/04/13 00:27:51;;;;;;;1999.90;999.90;;;8.30;99.90;;;;;;4999795;28;20261;-72
2023/04/13 00:30:18;;;;;;;1999.90;999.90;;;8.30;99.90;;;;;;4999526;28;20315;-73
2023/04/13 00:32:44;;;;;;;1999.90;999.90;;;8.30;99.90;;;;;;4997591;28;20440;-72
2023/04/13 00:35:15;;;;;;;1999.90;999.90;;;8.30;99.90;;;;;;4998431;28;20408;-73
2023/04/13 00:37:41;;;;;;;1999.90;999.90;;;8.30;99.90;;;;;;4998402;28;20407;-73
2023/04/13 00:40:09;;;;;;;1999.90;999.90;;;8.40;99.90;;;;;;4999102;28;20420;-72
2023/04/13 00:42:35;;;;;;;1999.90;999.90;;;8.30;99.90;;;;;;4998038;28;20462;-72
2023/04/13 00:45:01;;;;;;;1999.90;999.90;;;8.30;99.90;;;;;;4998841;28;20912;-72
2023/04/13 00:47:33;;;;;;;1999.90;999.90;;;8.30;99.90;;;;;;4998966;28;20405;-73
2023/04/13 00:50:04;;;;;;;1999.90;999.90;;;8.30;99.90;;;;;;4998790;28;20409;-72
2023/04/13 00:52:33;;;;;;;1999.90;999.90;;;8.30;99.90;;;;;;4998705;28;20458;-72
2023/04/13 00:55:01;;;;;;;1999.90;999.90;;;8.20;99.90;;;;;;4998529;28;20417;-73
2023/04/13 00:57:27;;;;;;;1999.90;999.90;;;8.20;99.90;;;;;;4998872;28;20410;-73
2023/04/13 00:59:54;;;;;;;1999.90;999.90;;;8.10;99.90;;;;;;4994662;28;20466;-72
2023/04/13 01:02:25;;;;;;;1999.90;999.90;;;8.00;99.90;;;;;;4992500;28;20405;-72
2023/04/13 01:04:53;;;;;;;1999.90;999.90;;;8.10;99.90;;;;;;4992978;28;20942;-72
2023/04/13 01:07:31;;;;;;;1999.90;999.90;;;8.10;99.90;;;;;;4992728;28;20410;-72
2023/04/13 01:10:24;;;;;;;1999.90;999.90;;;8.10;99.90;;;;;;4992750;28;20406;-72
2023/04/13 01:13:09;;;;;;;1999.90;999.90;;;8.10;99.90;;;;;;4992516;28;20425;-72
2023/04/13 01:15:39;;;;;;;1999.90;999.90;;;8.10;99.90;;;;;;4992851;28;20419;-72
2023/04/13 01:18:08;;;;;;;1999.90;999.90;;;8.10;99.90;;;;;;4992624;28;20836;-72
2023/04/13 01:20:42;;;;;;;1999.90;999.90;;;8.10;99.90;;;;;;4992865;28;20415;-72
2023/04/13 01:23:23;;;;;;;1999.90;999.90;;;8.20;99.90;;;;;;4992210;28;20443;-72
2023/04/13 01:26:07;;;;;;;1999.90;999.90;;;8.20;99.90;;;;;;4992777;28;20412;-72
2023/04/13 01:28:35;;;;;;;1999.90;999.90;;;8.20;99.90;;;;;;4992569;28;20420;-73
2023/04/13 01:31:04;;;;;;;1999.90;999.90;;;8.10;99.90;;;;;;4992445;28;20474;-72
2023/04/13 01:33:32;;;;;;;1999.90;999.90;;;8.20;99.90;;;;;;4992574;28;20471;-72
2023/04/13 01:35:59;;;;;;;1999.90;999.90;;;8.20;99.90;;;;;;4992621;28;20437;-72
2023/04/13 01:38:25;;;;;;;1999.90;999.90;;;8.20;99.90;;;;;;4995746;28;20459;-73
2023/04/13 01:40:51;;;;;;;1999.90;999.90;;;8.10;99.90;;;;;;4996608;28;20418;-72
2023/04/13 01:43:18;;;;;;;1999.90;999.90;;;8.20;99.90;;;;;;4996196;28;20205;-72
2023/04/13 01:45:56;;;;;;;1999.90;999.90;;;8.20;99.90;;;;;;4996374;28;20964;-72
2023/04/13 01:48:28;;;;;;;1999.90;999.90;;;8.20;99.90;;;;;;4996402;28;20465;-73
2023/04/13 01:51:10;;;;;;;1999.90;999.90;;;8.20;99.90;;;;;;4996120;28;20419;-71
2023/04/13 01:53:45;;;;;;;1999.90;999.90;;;8.30;99.90;;;;;;4996228;28;20916;-71
2023/04/13 01:56:12;;;;;;;1999.90;999.90;;;8.30;99.90;;;;;;4996218;28;20403;-73
2023/04/13 01:58:39;;;;;;;1999.90;999.90;;;8.30;99.90;;;;;;4996232;28;20458;-73
2023/04/13 02:01:06;;;;;;;1999.90;999.90;;;8.40;99.90;;;;;;4995873;28;20488;-72
2023/04/13 02:03:33;;;;;;;1999.90;999.90;;;8.40;99.90;;;;;;4996080;28;20434;-71
2023/04/13 02:06:00;;;;;;;1999.90;999.90;;;8.40;99.90;;;;;;4996093;28;20449;-72
2023/04/13 02:08:26;;;;;;;1999.90;999.90;;;8.40;99.90;;;;;;4995955;28;20927;-72
2023/04/13 02:10:51;;;;;;;1999.90;999.90;;;8.40;99.90;;;;;;4995811;28;20421;-72
2023/04/13 02:13:17;;;;;;;1999.90;999.90;;;8.40;99.90;;;;;;4995779;28;20186;-72
2023/04/13 02:15:43;;;;;;;1999.90;999.90;;;8.40;99.90;;;;;;4995890;28;20509;-71
2023/04/13 02:18:10;;;;;;;1999.90;999.90;;;8.40;99.90;;;;;;4995819;28;20208;-72
2023/04/13 02:20:42;;;;;;;1999.90;999.90;;;8.40;99.90;;;;;;4995742;28;20408;-72
2023/04/13 02:23:14;;;;;;;1999.90;999.90;;;8.40;99.90;;;;;;4995244;28;20458;-73
2023/04/13 02:25:45;;;;;;;1999.90;999.90;;;8.40;99.90;;;;;;4995758;28;20407;-73
2023/04/13 02:28:11;;;;;;;1999.90;999.90;;;8.40;99.90;;;;;;4995568;28;20502;-72
2023/04/13 02:30:36;;;;;;;1999.90;999.90;;;8.40;99.90;;;;;;4995611;28;20496;-72
2023/04/13 02:33:02;;;;;;;1999.90;999.90;;;8.30;99.90;;;;;;4995254;28;20219;-73
2023/04/13 02:35:28;;;;;;;1999.90;999.90;;;8.30;99.90;;;;;;4995722;28;20182;-72
2023/04/13 02:37:54;;;;;;;1999.90;999.90;;;8.30;99.90;;;;;;4995519;28;20676;-72
2023/04/13 02:40:20;;;;;;;1999.90;999.90;;;8.30;99.90;;;;;;4995515;28;20638;-72
2023/04/13 02:42:47;;;;;;;1999.90;999.90;;;8.30;99.90;;;;;;4995084;28;20484;-72
2023/04/13 02:45:16;;;;;;;1999.90;999.90;;;8.30;99.90;;;;;;4995456;28;20180;-72
2023/04/13 02:47:42;;;;;;;1999.90;999.90;;;8.30;99.90;;;;;;4995172;28;20917;-72
2023/04/13 02:50:08;;;;;;;1999.90;999.90;;;8.30;99.90;;;;;;4994783;28;20428;-73
2023/04/13 02:52:33;;;;;;;1999.90;999.90;;;8.30;99.90;;;;;;4994776;28;20427;-72
2023/04/13 02:55:00;;;;;;;1999.90;999.90;;;8.30;99.90;;;;;;4995167;28;20173;-73
2023/04/13 02:57:25;;;;;;;1999.90;999.90;;;8.30;99.90;;;;;;4995115;28;20196;-71
2023/04/13 02:59:52;;;;;;;1999.90;999.90;;;8.30;99.90;;;;;;4995179;28;20885;-72
2023/04/13 03:02:18;;;;;;;1999.90;999.90;;;8.20;99.90;;;;;;4994647;28;20164;-73
2023/04/13 03:04:44;;;;;;;1999.90;999.90;;;8.30;99.90;;;;;;4995183;28;20411;-72
2023/04/13 03:07:10;;;;;;;1999.90;999.90;;;8.30;99.90;;;;;;4995018;28;20408;-71
2023/04/13 03:09:36;;;;;;;1999.90;999.90;;;8.30;99.90;;;;;;4996121;28;20450;-72
2023/04/13 03:12:02;;;;;;;1999.90;999.90;;;8.30;99.90;;;;;;4996583;28;20473;-72
2023/04/13 03:14:29;;;;;;;1999.90;999.90;;;8.30;99.90;;;;;;4997175;28;20433;-72
2023/04/13 03:16:56;;;;;;;1999.90;999.90;;;8.20;99.90;;;;;;4996928;28;20189;-72
2023/04/13 03:19:22;;;;;;;1999.90;999.90;;;8.20;99.90;;;;;;4996005;28;20585;-72
2023/04/13 03:21:48;;;;;;;1999.90;999.90;;;8.20;99.90;;;;;;4995935;28;20403;-72
2023/04/13 03:24:14;;;;;;;1999.90;999.90;;;8.20;99.90;;;;;;4996336;28;20446;-73
2023/04/13 03:26:40;;;;;;;1999.90;999.90;;;8.20;99.90;;;;;;4996408;28;20405;-73
2023/04/13 03:29:06;;;;;;;1999.90;999.90;;;8.20;99.90;;;;;;4995643;28;20418;-72
2023/04/13 03:31:32;;;;;;;1999.90;999.90;;;8.20;99.90;;;;;;4996158;28;20419;-72
2023/04/13 03:33:58;;;;;;;1999.90;999.90;;;8.30;99.90;;;;;;4995773;28;20778;-72
2023/04/13 03:36:26;;;;;;;1999.90;999.90;;;8.20;99.90;;;;;;4994935;28;20431;-72
2023/04/13 03:38:52;;;;;;;1999.90;999.90;;;8.20;99.90;;;;;;4994523;28;20207;-72
2023/04/13 03:41:18;;;;;;;1999.90;999.90;;;8.30;99.90;;;;;;4994121;28;20923;-72
2023/04/13 03:43:43;;;;;;;1999.90;999.90;;;8.30;99.90;;;;;;4994302;28;20439;-72
2023/04/13 03:46:09;;;;;;;1999.90;999.90;;;8.30;99.90;;;;;;4994161;28;20167;-71
2023/04/13 03:48:35;;;;;;;1999.90;999.90;;;8.20;99.90;;;;;;4994453;28;20271;-73
2023/04/13 03:51:01;;;;;;;1999.90;999.90;;;8.20;99.90;;;;;;4994145;28;20201;-73
2023/04/13 03:53:26;;;;;;;1999.90;999.90;;;8.20;99.90;;;;;;4994093;28;20928;-71
2023/04/13 03:55:52;;;;;;;1999.90;999.90;;;8.20;99.90;;;;;;4994153;28;20727;-72
2023/04/13 03:58:17;;;;;;;1999.90;999.90;;;8.20;99.90;;;;;;4994068;28;20276;-72
2023/04/13 04:00:43;;;;;;;1999.90;999.90;;;8.20;99.90;;;;;;4992952;28;20195;-72
2023/04/13 04:03:09;;;;;;;1999.90;999.90;;;8.10;99.90;;;;;;4993721;28;20188;-73
2023/04/13 04:05:38;;;;;;;1999.90;999.90;;;8.00;99.90;;;;;;4994033;28;20178;-73
2023/04/13 04:08:04;;;;;;;1999.90;999.90;;;7.90;99.90;;;;;;4993964;28;20828;-71
2023/04/13 04:10:29;;;;;;;1999.90;999.90;;;7.80;99.90;;;;;;4993831;28;20464;-72
2023/04/13 04:12:56;;;;;;;1999.90;999.90;;;7.80;99.90;;;;;;4993608;28;20209;-72
2023/04/13 04:15:21;;;;;;;1999.90;999.90;;;7.80;99.90;;;;;;4993756;28;20164;-73
2023/04/13 04:17:47;;;;;;;1999.90;999.90;;;7.80;99.90;;;;;;4993742;28;20488;-72
2023/04/13 04:20:13;;;;;;;1999.90;999.90;;;7.80;99.90;;;;;;4994041;28;20567;-72
2023/04/13 04:22:40;;;;;;;1999.90;999.90;;;7.80;99.90;;;;;;4993219;28;20731;-72
2023/04/13 04:25:07;;;;;;;1999.90;999.90;;;7.80;99.90;;;;;;4993733;28;20533;-73
2023/04/13 04:27:37;;;;;;;1999.90;999.90;;;7.80;99.90;;;;;;4993584;28;20418;-72
2023/04/13 04:30:04;;;;;;;1999.90;999.90;;;7.80;99.90;;;;;;4992391;28;20788;-72
2023/04/13 04:32:29;;;;;;;1999.90;999.90;;;7.80;99.90;;;;;;4993057;28;20753;-72
2023/04/13 04:34:55;;;;;;;1999.90;999.90;;;7.80;99.90;;;;;;4993480;28;20417;-72
2023/04/13 04:37:22;;;;;;;1999.90;999.90;;;7.80;99.90;;;;;;4993608;28;20646;-71
2023/04/13 04:39:47;;;;;;;1999.90;999.90;;;7.80;99.90;;;;;;4993282;28;20205;-72
2023/04/13 04:42:13;;;;;;;1999.90;999.90;;;7.80;99.90;;;;;;4992980;28;20406;-71
2023/04/13 04:44:39;;;;;;;1999.90;999.90;;;7.80;99.90;;;;;;4993338;28;20417;-72
2023/04/13 04:47:05;;;;;;;1999.90;999.90;;;7.80;99.90;;;;;;4993269;28;20166;-72
2023/04/13 04:49:31;;;;;;;1999.90;999.90;;;7.80;99.90;;;;;;4993041;28;20180;-71
2023/04/13 04:51:57;;;;;;;1999.90;999.90;;;7.80;99.90;;;;;;4992845;28;20429;-73
2023/04/13 04:54:23;;;;;;;1999.90;999.90;;;7.80;99.90;;;;;;4993060;28;20454;-73
2023/04/13 04:56:52;;;;;;;1999.90;999.90;;;7.80;99.90;;;;;;4993083;28;20410;-72
2023/04/13 04:59:21;;;;;;;1999.90;999.90;;;7.80;99.90;;;;;;4992813;28;20457;-72
2023/04/13 05:01:48;;;;;;;1999.90;999.90;;;7.80;99.90;;;;;;4992749;28;21104;-72
2023/04/13 05:04:14;;;;;;;1999.90;999.90;;;7.70;99.90;;;;;;4992902;28;20425;-72
2023/04/13 05:06:40;;;;;;;1999.90;999.90;;;7.70;99.90;;;;;;4993155;28;20410;-72
2023/04/13 05:09:06;;;;;;;1999.90;999.90;;;7.70;99.90;;;;;;4992880;28;20405;-71
2023/04/13 05:11:32;;;;;;;1999.90;999.90;;;7.60;99.90;;;;;;4993055;28;20171;-72
2023/04/13 05:13:58;;;;;;;1999.90;999.90;;;7.60;99.90;;;;;;4993743;28;20420;-72
2023/04/13 05:16:24;;;;;;;1999.90;999.90;;;7.60;99.90;;;;;;4993769;28;20459;-72
2023/04/13 05:18:50;;;;;;;1999.90;999.90;;;7.60;99.90;;;;;;4994173;28;20468;-72
2023/04/13 05:21:17;;;;;;;1999.90;999.90;;;7.60;99.90;;;;;;4994037;28;20443;-72
2023/04/13 05:23:43;;;;;;;1999.90;999.90;;;7.50;99.90;;;;;;4993708;28;20499;-72
2023/04/13 05:26:11;;;;;;;1999.90;999.90;;;7.60;99.90;;;;;;4994153;28;20405;-72
2023/04/13 05:28:37;;;;;;;1999.90;999.90;;;7.60;99.90;;;;;;4994030;28;20401;-72
2023/04/13 05:31:03;;;;;;;1999.90;999.90;;;7.60;99.90;;;;;;4993473;28;20418;-72
2023/04/13 05:33:29;;;;;;;1999.90;999.90;;;7.60;99.90;;;;;;4994009;28;20502;-72
2023/04/13 05:35:57;;;;;;;1999.90;999.90;;;7.60;99.90;;;;;;4994048;28;20437;-72
2023/04/13 05:38:23;;;;;;;1999.90;999.90;;;7.60;99.90;;;;;;4993914;28;20279;-72
2023/04/13 05:40:48;;;;;;;1999.90;999.90;;;7.60;99.90;;;;;;4993794;28;20413;-73
2023/04/13 05:43:14;;;;;;;1999.90;999.90;;;7.70;99.90;;;;;;4993476;28;20186;-72
2023/04/13 05:45:40;;;;;;;1999.90;999.90;;;7.70;99.90;;;;;;4993468;28;20157;-72
2023/04/13 05:48:06;;;;;;;1999.90;999.90;;;7.80;99.90;;;;;;4993818;28;20174;-72
2023/04/13 05:50:31;;;;;;;1999.90;999.90;;;7.70;99.90;;;;;;4993926;28;20277;-72
2023/04/13 05:52:57;;;;;;;1999.90;999.90;;;7.70;99.90;;;;;;4993689;28;20225;-73
2023/04/13 05:55:23;;;;;;;1999.90;999.90;;;7.80;99.90;;;;;;4993835;28;20405;-73
2023/04/13 05:57:50;;;;;;;1999.90;999.90;;;7.70;99.90;;;;;;4993718;28;20170;-72
2023/04/13 06:00:18;;;;;;;1999.90;999.90;;;7.80;99.90;;;;;;4993585;28;20406;-72
2023/04/13 06:02:46;;;;;;;1999.90;999.90;;;7.80;99.90;;;;;;4993104;28;20522;-73
2023/04/13 06:05:13;;;;;;;1999.90;999.90;;;7.80;99.90;;;;;;4993629;28;20417;-72
2023/04/13 06:07:39;;;;;;;1999.90;999.90;;;7.90;99.90;;;;;;4993544;28;20408;-73
2023/04/13 06:10:05;;;;;;;1999.90;999.90;;;7.80;99.90;;;;;;4993765;28;20425;-73
2023/04/13 06:12:30;;;;;;;1999.90;999.90;;;7.90;99.90;;;;;;4992833;28;20414;-72
2023/04/13 06:14:56;;;;;;;1999.90;999.90;;;7.90;99.90;;;;;;4993311;28;20419;-73
2023/04/13 06:17:22;;;;;;;1999.90;999.90;;;7.90;99.90;;;;;;4993318;28;20184;-72
2023/04/13 06:19:47;;;;;;;1999.90;999.90;;;8.00;99.90;;;;;;4993571;28;20209;-72
2023/04/13 06:22:13;;;;;;;1999.90;999.90;;;7.90;99.90;;;;;;4992916;28;20211;-72
2023/04/13 06:24:39;;;;;;;1999.90;999.90;;;8.00;99.90;;;;;;4994721;28;20166;-73
2023/04/13 06:27:04;;;;;;;1999.90;999.90;;;8.10;99.90;;;;;;4996644;28;20174;-72
2023/04/13 06:29:30;;;;;;;1999.90;999.90;;;8.10;99.90;;;;;;4996662;28;20171;-72
2023/04/13 06:31:56;;;;;;;1999.90;999.90;;;8.10;99.90;;;;;;4996388;28;20162;-72
2023/04/13 06:34:21;;;;;;;1999.90;999.90;;;8.10;99.90;;;;;;4996855;28;20441;-72
2023/04/13 06:36:47;;;;;;;1999.90;999.90;;;8.10;99.90;;;;;;4997045;28;20177;-72
2023/04/13 06:39:13;;;;;;;1999.90;999.90;;;8.10;99.90;;;;;;4997489;28;20206;-72
2023/04/13 06:41:38;;;;;;;1999.90;999.90;;;8.10;99.90;;;;;;4997339;28;20172;-72
2023/04/13 06:44:04;;;;;;;1999.90;999.90;;;8.10;99.90;;;;;;4997434;28;20225;-72
2023/04/13 06:46:30;;;;;;;1999.90;999.90;;;8.10;99.90;;;;;;4997070;28;20174;-72
2023/04/13 06:48:55;;;;;;;1999.90;999.90;;;8.20;99.90;;;;;;4995349;28;20229;-72
2023/04/13 06:51:21;;;;;;;1999.90;999.90;;;8.30;99.90;;;;;;4995009;28;20307;-72
2023/04/13 06:53:47;;;;;;;1999.90;999.90;;;8.40;99.90;;;;;;4995158;28;20206;-72
2023/04/13 06:56:12;;;;;;;1999.90;999.90;;;8.50;99.90;;;;;;4995210;28;20180;-71
2023/04/13 06:58:38;;;;;;;1999.90;999.90;;;8.50;99.90;;;;;;4994792;28;20729;-73
2023/04/13 07:01:03;;;;;;;1999.90;999.90;;;8.70;99.90;;;;;;4994829;28;20216;-72
2023/04/13 07:03:30;;;;;;;1999.90;999.90;;;8.70;99.90;;;;;;4994988;28;20192;-72
2023/04/13 07:05:56;;;;;;;1999.90;999.90;;;8.70;99.90;;;;;;4994978;28;20179;-73
2023/04/13 07:08:21;;;;;;;1999.90;999.90;;;8.80;99.90;;;;;;4994972;28;20416;-72
2023/04/13 07:10:52;;;;;;;1999.90;999.90;;;8.80;99.90;;;;;;4994864;28;20183;-72
2023/04/13 07:13:17;;;;;;;1999.90;999.90;;;8.80;99.90;;;;;;4994693;28;20900;-71
2023/04/13 07:15:43;;;;;;;1999.90;999.90;;;8.90;99.90;;;;;;4995040;28;20413;-72
2023/04/13 07:18:09;;;;;;;1999.90;999.90;;;8.80;99.90;;;;;;4994661;28;20204;-72
2023/04/13 07:20:35;;;;;;;1999.90;999.90;;;8.70;99.90;;;;;;4994658;28;20206;-71
2023/04/13 07:23:01;;;;;;;1999.90;999.90;;;8.70;99.90;;;;;;4994391;28;20208;-71
2023/04/13 07:25:26;;;;;;;1999.90;999.90;;;8.70;99.90;;;;;;4994722;28;20415;-71
2023/04/13 07:27:52;;;;;;;1999.90;999.90;;;8.70;99.90;;;;;;4994559;28;20462;-72
2023/04/13 07:30:18;;;;;;;1999.90;999.90;;;8.70;99.90;;;;;;4994551;28;20180;-73
2023/04/13 07:32:43;;;;;;;1999.90;999.90;;;8.80;99.90;;;;;;4994076;28;20196;-72
2023/04/13 07:35:09;;;;;;;1999.90;999.90;;;8.90;99.90;;;;;;4994275;28;20164;-72
2023/04/13 07:37:35;;;;;;;1999.90;999.90;;;8.90;99.90;;;;;;4994408;28;20535;-73
2023/04/13 07:40:00;;;;;;;1999.90;999.90;;;9.10;99.90;;;;;;4994477;28;20642;-72
2023/04/13 07:42:26;;;;;;;1999.90;999.90;;;9.10;99.90;;;;;;4994062;28;20200;-72
2023/04/13 07:44:57;;;;;;;1999.90;999.90;;;9.10;99.90;;;;;;4994311;28;20180;-72
2023/04/13 07:47:23;;;;;;;1999.90;999.90;;;9.20;99.90;;;;;;4994272;28;20173;-73
2023/04/13 07:49:49;;;;;;;1999.90;999.90;;;9.30;99.90;;;;;;4994147;28;20744;-72
2023/04/13 07:52:14;;;;;;;1999.90;999.90;;;9.60;99.90;;;;;;4993827;28;20218;-73
2023/04/13 07:54:40;;;;;;;1999.90;999.90;;;9.20;99.90;;;;;;4994071;28;20227;-69
2023/04/13 07:57:05;;;;;;;1999.90;999.90;;;9.30;99.90;;;;;;4994138;28;20670;-72
2023/04/13 07:59:31;;;;;;;1999.90;999.90;;;9.30;99.90;;;;;;4994048;28;20620;-72
2023/04/13 08:01:56;;;;;;;1999.90;999.90;;;9.40;99.90;;;;;;4993606;28;20207;-72
2023/04/13 08:04:22;;;;;;;1999.90;999.90;;;9.40;99.90;;;;;;4994559;28;20562;-73
2023/04/13 08:06:48;;;;;;;1999.90;999.90;;;9.40;99.90;;;;;;4998932;28;20204;-73
2023/04/13 08:09:14;;;;;;;1999.90;999.90;;;9.40;99.90;;;;;;4999455;28;20459;-73
2023/04/13 08:11:41;;;;;;;1999.90;999.90;;;9.40;99.90;;;;;;4999352;28;20204;-71
2023/04/13 08:14:08;;;;;;;1999.90;999.90;;;9.40;99.90;;;;;;4999834;28;20199;-73
2023/04/13 08:16:34;;;;;;;1999.90;999.90;;;9.30;99.90;;;;;;4999630;28;20925;-73
2023/04/13 08:19:00;;;;;;;1999.90;999.90;;;9.50;99.90;;;;;;4999065;28;20454;-71
2023/04/13 08:21:27;;;;;;;1999.90;999.90;;;9.80;99.90;;;;;;4999502;28;20176;-73
2023/04/13 08:23:53;;;;;;;1999.90;999.90;;;9.70;99.90;;;;;;4999268;28;20960;-73
2023/04/13 08:26:20;;;;;;;1999.90;999.90;;;10.00;99.90;;;;;;4998857;28;20499;-74
2023/04/13 08:28:47;;;;;;;1999.90;999.90;;;10.20;99.90;;;;;;4995873;28;20443;-72
2023/04/13 08:31:13;;;;;;;1999.90;999.90;;;9.70;99.90;;;;;;4993324;28;21272;-72
2023/04/13 08:33:39;;;;;;;1999.90;999.90;;;9.60;99.90;;;;;;4993600;28;20422;-72
2023/04/13 08:36:05;;;;;;;1999.90;999.90;;;9.60;99.90;;;;;;4994574;28;20415;-72
2023/04/13 08:38:32;;;;;;;1999.90;999.90;;;9.60;99.90;;;;;;4994456;28;20200;-70
2023/04/13 08:41:00;;;;;;;1999.90;999.90;;;9.80;99.90;;;;;;4994291;28;20458;-70
2023/04/13 08:43:26;;;;;;;1999.90;999.90;;;9.80;99.90;;;;;;4993909;28;20428;-70
2023/04/13 08:45:52;;;;;;;1999.90;999.90;;;9.70;99.90;;;;;;4994341;28;20414;-70
2023/04/13 08:48:18;;;;;;;1999.90;999.90;;;9.80;99.90;;;;;;4994108;28;20906;-73
2023/04/13 08:50:45;;;;;;;1999.90;999.90;;;9.80;99.90;;;;;;4994714;28;20172;-72
2023/04/13 08:53:11;;;;;;;1999.90;999.90;;;9.70;99.90;;;;;;4994305;28;20427;-73
2023/04/13 08:55:44;;;;;;;1999.90;999.90;;;9.80;99.90;;;;;;4994073;28;20882;-73
2023/04/13 08:58:12;;;;;;;1999.90;999.90;;;9.80;99.90;;;;;;4994208;28;20207;-73
2023/04/13 09:00:40;;;;;;;1999.90;999.90;;;9.70;99.90;;;;;;4994342;28;20408;-73
2023/04/13 09:03:07;;;;;;;1999.90;999.90;;;9.70;99.90;;;;;;4994039;28;20463;-72
2023/04/13 09:05:37;;;;;;;1999.90;999.90;;;9.70;99.90;;;;;;4994223;28;20407;-72
2023/04/13 09:08:06;;;;;;;1999.90;999.90;;;9.70;99.90;;;;;;4994055;28;20488;-73
2023/04/13 09:10:32;;;;;;;1999.90;999.90;;;9.50;99.90;;;;;;4993937;28;20914;-72
2023/04/13 09:12:58;;;;;;;1999.90;999.90;;;9.60;99.90;;;;;;4993397;28;20458;-73
2023/04/13 09:15:24;;;;;;;1999.90;999.90;;;9.70;99.90;;;;;;4993461;28;20405;-73
2023/04/13 09:17:50;;;;;;;1999.90;999.90;;;9.90;99.90;;;;;;4993205;28;20415;-71
2023/04/13 09:20:21;;;;;;;1999.90;999.90;;;10.10;99.90;;;;;;4987274;28;20185;-72
2023/04/13 09:22:50;;;;;;;1999.90;999.90;;;10.10;99.90;;;;;;4988239;28;20259;-71
2023/04/13 09:25:19;;;;;;;1999.90;999.90;;;10.20;99.90;;;;;;4988570;28;20838;-71
2023/04/13 09:27:45;;;;;;;1999.90;999.90;;;10.30;99.90;;;;;;4987180;28;21149;-69
2023/04/13 09:30:12;;;;;;;1999.90;999.90;;;10.40;99.90;;;;;;4988267;28;20428;-72
2023/04/13 09:32:37;;;;;;;1999.90;999.90;;;10.50;99.90;;;;;;4988323;28;20436;-71
2023/04/13 09:35:07;;;;;;;1999.90;999.90;;;10.60;99.90;;;;;;4987827;28;20487;-71
2023/04/13 09:37:33;;;;;;;1999.90;999.90;;;10.70;99.90;;;;;;4984809;28;20227;-69
2023/04/13 09:40:09;;;;;;;1999.90;999.90;;;10.80;99.90;;;;;;4988632;28;21041;-71
2023/04/13 09:42:36;;;;;;;1999.90;999.90;;;10.60;99.90;;;;;;4988099;28;21300;-70
2023/04/13 09:45:02;;;;;;;1999.90;999.90;;;10.70;99.90;;;;;;4987440;28;20419;-71
2023/04/13 09:47:37;;;;;;;1999.90;999.90;;;10.70;99.90;;;;;;4989746;28;20423;-70
2023/04/13 09:50:04;;;;;;;1999.90;999.90;;;10.70;99.90;;;;;;4990336;28;20424;-69
2023/04/13 09:52:30;;;;;;;1999.90;999.90;;;11.30;99.90;;;;;;4988391;28;20425;-71
2023/04/13 09:54:57;;;;;;;1999.90;999.90;;;11.30;99.90;;;;;;4986935;28;21034;-71
2023/04/13 09:57:28;;;;;;;1999.90;999.90;;;11.60;99.90;;;;;;4988848;28;20417;-70
2023/04/13 09:59:56;;;;;;;1999.90;999.90;;;11.90;99.90;;;;;;4990922;28;20962;-71
2023/04/13 10:02:22;;;;;;;1999.90;999.90;;;11.70;99.90;;;;;;4991936;28;20424;-72
2023/04/13 10:04:48;;;;;;;1999.90;999.90;;;11.80;99.90;;;;;;4991636;28;20422;-70
2023/04/13 10:07:13;;;;;;;1999.90;999.90;;;11.60;99.90;;;;;;4990877;28;20432;-70
2023/04/13 10:09:43;;;;;;;1999.90;999.90;;;11.50;99.90;;;;;;4991511;28;20232;-71
2023/04/13 10:12:13;;;;;;;1999.90;999.90;;;11.40;99.90;;;;;;4991461;28;20240;-71
2023/04/13 10:14:42;;;;;;;1999.90;999.90;;;11.50;99.90;;;;;;4993021;28;20413;-70
2023/04/13 10:17:36;;;;;;;1999.90;999.90;;;11.60;99.90;;;;;;4992805;28;20817;-71
2023/04/13 10:20:11;;;;;;;1999.90;999.90;;;11.70;99.90;;;;;;4992121;28;20457;-71
2023/04/13 10:22:39;;;;;;;1999.90;999.90;;;11.90;99.90;;;;;;4991127;28;20547;-71
2023/04/13 10:25:06;;;;;;;1999.90;999.90;;;11.90;99.90;;;;;;4992219;28;20822;-71
2023/04/13 10:27:32;;;;;;;1999.90;999.90;;;11.90;99.90;;;;;;4991328;28;20448;-68
2023/04/13 10:29:59;;;;;;;1999.90;999.90;;;12.10;99.90;;;;;;5004345;28;20416;-69
2023/04/13 10:32:27;;;;;;;1999.90;999.90;;;12.10;99.90;;;;;;5008857;28;20790;-69
2023/04/13 10:34:53;;;;;;;1999.90;999.90;;;12.20;99.90;;;;;;5011868;28;20893;-69
2023/04/13 10:37:25;;;;;;;1999.90;999.90;;;12.10;99.90;;;;;;5010611;28;20496;-69
2023/04/13 10:40:05;;;;;;;1999.90;999.90;;;12.00;99.90;;;;;;5006970;28;20467;-69
2023/04/13 10:42:46;;;;;;;1999.90;999.90;;;11.80;99.90;;;;;;5010755;28;20470;-69
2023/04/13 10:45:23;;;;;;;1999.90;999.90;;;11.70;99.90;;;;;;5009708;28;20439;-71
2023/04/13 10:47:49;;;;;;;1999.90;999.90;;;11.60;99.90;;;;;;5012468;28;20413;-72
2023/04/13 10:50:16;;;;;;;1999.90;999.90;;;11.60;99.90;;;;;;5006108;28;20464;-72
2023/04/13 10:53:03;;;;;;;1999.90;999.90;;;11.70;99.90;;;;;;5013614;28;20491;-72
2023/04/13 10:55:30;;;;;;;1999.90;999.90;;;11.60;99.90;;;;;;5014422;28;20403;-72
2023/04/13 10:57:58;;;;;;;1999.90;999.90;;;11.70;99.90;;;;;;5014274;28;20400;-72
2023/04/13 11:00:26;;;;;;;1999.90;999.90;;;11.70;99.90;;;;;;5013548;28;20874;-72
2023/04/13 11:02:54;;;;;;;1999.90;999.90;;;11.70;99.90;;;;;;5006995;28;20515;-72
2023/04/13 11:05:20;;;;;;;1999.90;999.90;;;11.80;99.90;;;;;;5012677;28;20405;-72
2023/04/13 11:07:47;;;;;;;1999.90;999.90;;;11.90;99.90;;;;;;5005348;28;20403;-72
2023/04/13 11:10:13;;;;;;;1999.90;999.90;;;11.90;99.90;;;;;;5013133;28;20177;-71
2023/04/13 11:12:47;;;;;;;1999.90;999.90;;;11.90;99.90;;;;;;5013582;28;20433;-72
2023/04/13 11:15:22;;;;;;;1999.90;999.90;;;11.90;99.90;;;;;;5013539;28;20394;-71
2023/04/13 11:17:52;;;;;;;1999.90;999.90;;;11.90;99.90;;;;;;5013951;28;20867;-72
2023/04/13 11:20:18;;;;;;;1999.90;999.90;;;12.00;99.90;;;;;;5013555;28;20872;-72
2023/04/13 11:22:44;;;;;;;1999.90;999.90;;;12.10;99.90;;;;;;5013145;28;20536;-72
2023/04/13 11:25:10;;;;;;;1999.90;999.90;;;12.10;99.90;;;;;;5013869;28;20752;-72
2023/04/13 11:27:36;;;;;;;1999.90;999.90;;;12.10;99.90;;;;;;5013672;28;20170;-72
2023/04/13 11:30:08;;;;;;;1999.90;999.90;;;12.20;99.90;;;;;;5013048;28;20436;-72
2023/04/13 11:32:35;;;;;;;1999.90;999.90;;;12.40;99.90;;;;;;5013223;28;20428;-70
2023/04/13 11:35:13;;;;;;;1999.90;999.90;;;12.50;99.90;;;;;;5013702;28;20935;-72
2023/04/13 11:37:44;;;;;;;1999.90;999.90;;;12.80;99.90;;;;;;5006898;28;20451;-72
2023/04/13 11:40:19;;;;;;;1999.90;999.90;;;13.10;99.90;;;;;;5007324;28;20517;-72
2023/04/13 11:42:46;;;;;;;1999.90;999.90;;;13.40;99.90;;;;;;5010919;28;20428;-72
2023/04/13 11:45:15;;;;;;;1999.90;999.90;;;13.70;99.90;;;;;;5013271;28;21032;-71
2023/04/13 11:47:42;;;;;;;1999.90;999.90;;;14.20;99.90;;;;;;5013604;28;20810;-72
2023/04/13 11:50:09;;;;;;;1999.90;999.90;;;14.60;99.90;;;;;;5011376;28;20436;-71
2023/04/13 11:52:35;;;;;;;1999.90;999.90;;;14.70;99.90;;;;;;5012881;28;21016;-72
2023/04/13 11:55:05;;;;;;;1999.90;999.90;;;15.00;97.70;;;;;;5013334;28;20501;-72
2023/04/13 11:57:34;;;;;;;1999.90;999.90;;;15.00;93.60;;;;;;5012774;28;20400;-73
2023/04/13 12:00:00;;;;;;;1999.90;999.90;;;15.20;92.00;;;;;;5012749;28;20459;-72
2023/04/13 12:02:29;;;;;;;1999.90;999.90;;;15.50;91.70;;;;;;5012771;28;20406;-72
2023/04/13 12:04:55;;;;;;;1999.90;999.90;;;15.80;88.40;;;;;;5012822;28;20404;-72
2023/04/13 12:07:21;;;;;;;1999.90;999.90;;;16.10;90.80;;;;;;5013108;28;20407;-72